sensor_id;sensor_type;location;lat;lon;timestamp;temperature;humidity
20057;DHT22;10189;49.546;7.906;2023-01-29T00:02:20;-2.20;79.00
20057;DHT22;10189;49.546;7.906;2023-01-29T00:04:46;-2.20;78.90
20057;DHT22;10189;49.546;7.906;2023-01-29T00:07:12;-2.30;78.10
20057;DHT22;10189;49.546;7.906;2023-01-29T00:09:37;-2.30;78.80
20057;DHT22;10189;49.546;7.906;2023-01-29T00:12:05;-2.30;77.90
20057;DHT22;10189;49.546;7.906;2023-01-29T00:14:33;-2.30;77.50
20057;DHT22;10189;49.546;7.906;2023-01-29T00:16:59;-2.40;77.50
20057;DHT22;10189;49.546;7.906;2023-01-29T00:19:25;-2.40;78.20
20057;DHT22;10189;49.546;7.906;2023-01-29T00:21:51;-2.20;77.50
20057;DHT22;10189;49.546;7.906;2023-01-29T00:24:17;-2.30;77.10
20057;DHT22;10189;49.546;7.906;2023-01-29T00:26:43;-2.30;77.90
20057;DHT22;10189;49.546;7.906;2023-01-29T00:29:10;-2.40;78.20
20057;DHT22;10189;49.546;7.906;2023-01-29T00:31:36;-2.40;78.40
20057;DHT22;10189;49.546;7.906;2023-01-29T00:34:02;-2.40;78.60
20057;DHT22;10189;49.546;7.906;2023-01-29T00:36:28;-2.30;78.10
20057;DHT22;10189;49.546;7.906;2023-01-29T00:38:58;-2.40;78.60
20057;DHT22;10189;49.546;7.906;2023-01-29T00:41:29;-2.30;77.90
20057;DHT22;10189;49.546;7.906;2023-01-29T00:44:15;-2.30;78.10
20057;DHT22;10189;49.546;7.906;2023-01-29T00:47:02;-2.30;77.00
20057;DHT22;10189;49.546;7.906;2023-01-29T00:49:29;-2.30;77.60
20057;DHT22;10189;49.546;7.906;2023-01-29T00:51:55;-2.40;77.80
20057;DHT22;10189;49.546;7.906;2023-01-29T00:54:39;-2.40;78.70
20057;DHT22;10189;49.546;7.906;2023-01-29T00:57:05;-2.50;79.20
20057;DHT22;10189;49.546;7.906;2023-01-29T00:59:31;-2.40;78.00
20057;DHT22;10189;49.546;7.906;2023-01-29T01:01:57;-2.50;77.90
20057;DHT22;10189;49.546;7.906;2023-01-29T01:04:41;-2.50;78.40
20057;DHT22;10189;49.546;7.906;2023-01-29T01:07:07;-2.50;77.60
20057;DHT22;10189;49.546;7.906;2023-01-29T01:09:36;-2.40;76.40
20057;DHT22;10189;49.546;7.906;2023-01-29T01:12:20;-2.40;76.70
20057;DHT22;10189;49.546;7.906;2023-01-29T01:14:46;-2.50;76.80
20057;DHT22;10189;49.546;7.906;2023-01-29T01:17:13;-2.40;77.20
20057;DHT22;10189;49.546;7.906;2023-01-29T01:19:40;-2.40;76.70
20057;DHT22;10189;49.546;7.906;2023-01-29T01:22:06;-2.50;77.00
20057;DHT22;10189;49.546;7.906;2023-01-29T01:24:32;-2.50;77.50
20057;DHT22;10189;49.546;7.906;2023-01-29T01:26:58;-2.50;77.00
20057;DHT22;10189;49.546;7.906;2023-01-29T01:29:24;-2.50;77.60
20057;DHT22;10189;49.546;7.906;2023-01-29T01:31:52;-2.50;77.50
20057;DHT22;10189;49.546;7.906;2023-01-29T01:34:18;-2.60;77.60
20057;DHT22;10189;49.546;7.906;2023-01-29T01:36:45;-2.70;77.30
20057;DHT22;10189;49.546;7.906;2023-01-29T01:39:11;-2.70;76.40
20057;DHT22;10189;49.546;7.906;2023-01-29T01:41:37;-2.80;77.20
20057;DHT22;10189;49.546;7.906;2023-01-29T01:44:04;-2.80;78.10
20057;DHT22;10189;49.546;7.906;2023-01-29T01:46:34;-2.70;78.00
20057;DHT22;10189;49.546;7.906;2023-01-29T01:49:04;-2.70;78.30
20057;DHT22;10189;49.546;7.906;2023-01-29T01:51:32;-2.60;78.40
20057;DHT22;10189;49.546;7.906;2023-01-29T01:54:06;-2.70;78.20
20057;DHT22;10189;49.546;7.906;2023-01-29T01:56:42;-2.80;77.60
20057;DHT22;10189;49.546;7.906;2023-01-29T01:59:15;-2.80;78.20
20057;DHT22;10189;49.546;7.906;2023-01-29T02:01:44;-2.80;78.50
20057;DHT22;10189;49.546;7.906;2023-01-29T02:04:20;-2.80;78.30
20057;DHT22;10189;49.546;7.906;2023-01-29T02:07:09;-2.80;78.30
20057;DHT22;10189;49.546;7.906;2023-01-29T02:10:11;-2.80;78.70
20057;DHT22;10189;49.546;7.906;2023-01-29T02:12:41;-2.70;78.80
20057;DHT22;10189;49.546;7.906;2023-01-29T02:15:10;-2.70;78.80
20057;DHT22;10189;49.546;7.906;2023-01-29T02:17:37;-2.70;78.90
20057;DHT22;10189;49.546;7.906;2023-01-29T02:28:19;-2.70;80.00
20057;DHT22;10189;49.546;7.906;2023-01-29T02:36:37;-2.70;79.10
20057;DHT22;10189;49.546;7.906;2023-01-29T02:42:43;-2.70;80.30
20057;DHT22;10189;49.546;7.906;2023-01-29T02:45:23;-2.80;80.70
20057;DHT22;10189;49.546;7.906;2023-01-29T02:48:01;-2.90;81.10
20057;DHT22;10189;49.546;7.906;2023-01-29T02:50:37;-3.00;81.40
20057;DHT22;10189;49.546;7.906;2023-01-29T02:53:20;-3.10;81.70
20057;DHT22;10189;49.546;7.906;2023-01-29T02:56:20;-3.20;82.10
20057;DHT22;10189;49.546;7.906;2023-01-29T02:59:03;-3.30;82.10
20057;DHT22;10189;49.546;7.906;2023-01-29T03:01:47;-3.30;80.60
20057;DHT22;10189;49.546;7.906;2023-01-29T03:04:21;-3.40;80.50
20057;DHT22;10189;49.546;7.906;2023-01-29T03:07:05;-3.50;80.60
20057;DHT22;10189;49.546;7.906;2023-01-29T03:09:56;-3.50;82.60
20057;DHT22;10189;49.546;7.906;2023-01-29T03:12:25;-3.50;83.30
20057;DHT22;10189;49.546;7.906;2023-01-29T03:15:10;-3.40;83.10
20057;DHT22;10189;49.546;7.906;2023-01-29T03:18:05;-3.50;83.70
20057;DHT22;10189;49.546;7.906;2023-01-29T03:20:48;-3.50;84.00
20057;DHT22;10189;49.546;7.906;2023-01-29T03:23:27;-3.40;83.60
20057;DHT22;10189;49.546;7.906;2023-01-29T03:26:19;-3.40;83.40
20057;DHT22;10189;49.546;7.906;2023-01-29T03:29:06;-3.40;82.80
20057;DHT22;10189;49.546;7.906;2023-01-29T03:31:54;-3.20;83.60
20057;DHT22;10189;49.546;7.906;2023-01-29T03:34:38;-3.10;81.50
20057;DHT22;10189;49.546;7.906;2023-01-29T03:37:19;-3.10;82.10
20057;DHT22;10189;49.546;7.906;2023-01-29T03:39:50;-3.20;82.50
20057;DHT22;10189;49.546;7.906;2023-01-29T03:42:29;-3.20;83.10
20057;DHT22;10189;49.546;7.906;2023-01-29T03:46:13;-3.10;83.10
20057;DHT22;10189;49.546;7.906;2023-01-29T04:02:25;-3.10;81.60
20057;DHT22;10189;49.546;7.906;2023-01-29T04:05:04;-3.20;82.50
20057;DHT22;10189;49.546;7.906;2023-01-29T04:07:56;-3.20;82.70
20057;DHT22;10189;49.546;7.906;2023-01-29T04:10:30;-3.20;82.40
20057;DHT22;10189;49.546;7.906;2023-01-29T04:13:07;-3.10;82.00
20057;DHT22;10189;49.546;7.906;2023-01-29T04:15:42;-3.00;82.00
20057;DHT22;10189;49.546;7.906;2023-01-29T04:18:11;-2.90;81.10
20057;DHT22;10189;49.546;7.906;2023-01-29T04:20:57;-3.00;80.50
20057;DHT22;10189;49.546;7.906;2023-01-29T04:23:26;-3.00;80.90
20057;DHT22;10189;49.546;7.906;2023-01-29T04:37:45;-3.30;80.30
20057;DHT22;10189;49.546;7.906;2023-01-29T04:40:30;-3.30;80.20
20057;DHT22;10189;49.546;7.906;2023-01-29T04:46:13;-3.40;80.90
20057;DHT22;10189;49.546;7.906;2023-01-29T04:51:57;-3.60;82.00
20057;DHT22;10189;49.546;7.906;2023-01-29T04:54:49;-3.50;82.10
20057;DHT22;10189;49.546;7.906;2023-01-29T05:00:27;-3.50;81.40
20057;DHT22;10189;49.546;7.906;2023-01-29T05:02:59;-3.50;81.40
20057;DHT22;10189;49.546;7.906;2023-01-29T05:05:26;-3.50;81.80
20057;DHT22;10189;49.546;7.906;2023-01-29T05:07:53;-3.50;82.00
20057;DHT22;10189;49.546;7.906;2023-01-29T05:10:22;-3.40;83.00
20057;DHT22;10189;49.546;7.906;2023-01-29T05:12:58;-3.40;82.80
20057;DHT22;10189;49.546;7.906;2023-01-29T05:15:36;-3.40;82.60
20057;DHT22;10189;49.546;7.906;2023-01-29T05:18:05;-3.30;82.70
20057;DHT22;10189;49.546;7.906;2023-01-29T05:20:38;-3.30;82.30
20057;DHT22;10189;49.546;7.906;2023-01-29T05:23:18;-3.20;82.60
20057;DHT22;10189;49.546;7.906;2023-01-29T05:25:49;-3.30;82.70
20057;DHT22;10189;49.546;7.906;2023-01-29T05:28:16;-3.20;82.30
20057;DHT22;10189;49.546;7.906;2023-01-29T05:30:47;-3.30;82.30
20057;DHT22;10189;49.546;7.906;2023-01-29T05:33:24;-3.30;82.00
20057;DHT22;10189;49.546;7.906;2023-01-29T05:35:52;-3.30;80.90
20057;DHT22;10189;49.546;7.906;2023-01-29T05:38:19;-3.30;80.40
20057;DHT22;10189;49.546;7.906;2023-01-29T05:40:46;-3.30;80.90
20057;DHT22;10189;49.546;7.906;2023-01-29T05:43:19;-3.30;81.00
20057;DHT22;10189;49.546;7.906;2023-01-29T05:45:56;-3.20;81.10
20057;DHT22;10189;49.546;7.906;2023-01-29T05:48:24;-3.20;81.30
20057;DHT22;10189;49.546;7.906;2023-01-29T05:50:52;-3.20;81.50
20057;DHT22;10189;49.546;7.906;2023-01-29T05:53:17;-3.30;81.50
20057;DHT22;10189;49.546;7.906;2023-01-29T05:55:45;-3.20;80.90
20057;DHT22;10189;49.546;7.906;2023-01-29T05:58:13;-3.30;80.40
20057;DHT22;10189;49.546;7.906;2023-01-29T06:00:39;-3.20;80.20
20057;DHT22;10189;49.546;7.906;2023-01-29T06:03:05;-3.30;81.20
20057;DHT22;10189;49.546;7.906;2023-01-29T06:05:32;-3.30;81.50
20057;DHT22;10189;49.546;7.906;2023-01-29T06:07:57;-3.30;81.30
20057;DHT22;10189;49.546;7.906;2023-01-29T06:10:23;-3.40;81.20
20057;DHT22;10189;49.546;7.906;2023-01-29T06:12:49;-3.50;81.50
20057;DHT22;10189;49.546;7.906;2023-01-29T06:15:15;-3.50;81.40
20057;DHT22;10189;49.546;7.906;2023-01-29T06:17:42;-3.50;81.90
20057;DHT22;10189;49.546;7.906;2023-01-29T06:20:08;-3.50;81.50
20057;DHT22;10189;49.546;7.906;2023-01-29T06:22:36;-3.40;82.10
20057;DHT22;10189;49.546;7.906;2023-01-29T06:25:02;-3.50;83.00
20057;DHT22;10189;49.546;7.906;2023-01-29T06:27:28;-3.50;83.60
20057;DHT22;10189;49.546;7.906;2023-01-29T06:29:54;-3.60;83.70
20057;DHT22;10189;49.546;7.906;2023-01-29T06:32:20;-3.70;83.80
20057;DHT22;10189;49.546;7.906;2023-01-29T06:34:46;-3.70;83.50
20057;DHT22;10189;49.546;7.906;2023-01-29T06:37:12;-3.60;82.80
20057;DHT22;10189;49.546;7.906;2023-01-29T06:39:38;-3.60;82.50
20057;DHT22;10189;49.546;7.906;2023-01-29T06:42:04;-3.60;82.60
20057;DHT22;10189;49.546;7.906;2023-01-29T06:44:30;-3.70;82.60
20057;DHT22;10189;49.546;7.906;2023-01-29T06:46:55;-3.60;82.30
20057;DHT22;10189;49.546;7.906;2023-01-29T06:49:21;-3.60;82.10
20057;DHT22;10189;49.546;7.906;2023-01-29T06:51:47;-3.60;81.90
20057;DHT22;10189;49.546;7.906;2023-01-29T06:54:13;-3.60;82.00
20057;DHT22;10189;49.546;7.906;2023-01-29T06:56:39;-3.60;82.30
20057;DHT22;10189;49.546;7.906;2023-01-29T06:59:05;-3.60;82.40
20057;DHT22;10189;49.546;7.906;2023-01-29T07:01:31;-3.60;82.50
20057;DHT22;10189;49.546;7.906;2023-01-29T07:03:57;-3.50;83.00
20057;DHT22;10189;49.546;7.906;2023-01-29T07:06:29;-3.60;84.00
20057;DHT22;10189;49.546;7.906;2023-01-29T07:08:55;-3.60;84.40
20057;DHT22;10189;49.546;7.906;2023-01-29T07:11:21;-3.60;84.50
20057;DHT22;10189;49.546;7.906;2023-01-29T07:13:47;-3.50;84.80
20057;DHT22;10189;49.546;7.906;2023-01-29T07:16:13;-3.50;85.00
20057;DHT22;10189;49.546;7.906;2023-01-29T07:18:38;-3.40;84.40
20057;DHT22;10189;49.546;7.906;2023-01-29T07:21:05;-3.40;84.10
20057;DHT22;10189;49.546;7.906;2023-01-29T07:23:33;-3.40;84.00
20057;DHT22;10189;49.546;7.906;2023-01-29T07:26:01;-3.40;84.70
20057;DHT22;10189;49.546;7.906;2023-01-29T07:28:28;-3.30;84.80
20057;DHT22;10189;49.546;7.906;2023-01-29T07:30:58;-3.40;84.70
20057;DHT22;10189;49.546;7.906;2023-01-29T07:33:24;-3.40;85.00
20057;DHT22;10189;49.546;7.906;2023-01-29T07:35:51;-3.40;84.50
20057;DHT22;10189;49.546;7.906;2023-01-29T07:38:17;-3.30;84.10
20057;DHT22;10189;49.546;7.906;2023-01-29T07:40:43;-3.30;84.40
20057;DHT22;10189;49.546;7.906;2023-01-29T07:43:09;-3.30;84.20
20057;DHT22;10189;49.546;7.906;2023-01-29T07:45:38;-3.40;84.00
20057;DHT22;10189;49.546;7.906;2023-01-29T07:48:05;-3.30;83.40
20057;DHT22;10189;49.546;7.906;2023-01-29T07:50:34;-3.20;81.40
20057;DHT22;10189;49.546;7.906;2023-01-29T07:53:01;-3.20;81.40
20057;DHT22;10189;49.546;7.906;2023-01-29T07:55:27;-3.30;81.60
20057;DHT22;10189;49.546;7.906;2023-01-29T07:57:57;-3.30;81.90
20057;DHT22;10189;49.546;7.906;2023-01-29T08:00:25;-3.30;82.30
20057;DHT22;10189;49.546;7.906;2023-01-29T08:02:51;-3.30;82.60
20057;DHT22;10189;49.546;7.906;2023-01-29T08:05:17;-3.40;82.90
20057;DHT22;10189;49.546;7.906;2023-01-29T08:07:43;-3.30;82.90
20057;DHT22;10189;49.546;7.906;2023-01-29T08:10:09;-3.30;80.60
20057;DHT22;10189;49.546;7.906;2023-01-29T08:12:36;-3.20;80.50
20057;DHT22;10189;49.546;7.906;2023-01-29T08:15:02;-3.20;79.70
20057;DHT22;10189;49.546;7.906;2023-01-29T08:17:28;-3.10;80.40
20057;DHT22;10189;49.546;7.906;2023-01-29T08:19:54;-3.10;80.50
20057;DHT22;10189;49.546;7.906;2023-01-29T08:22:20;-3.00;80.70
20057;DHT22;10189;49.546;7.906;2023-01-29T08:24:45;-3.10;78.70
20057;DHT22;10189;49.546;7.906;2023-01-29T08:27:11;-3.00;79.00
20057;DHT22;10189;49.546;7.906;2023-01-29T08:29:37;-2.80;79.30
20057;DHT22;10189;49.546;7.906;2023-01-29T08:32:04;-2.60;80.00
20057;DHT22;10189;49.546;7.906;2023-01-29T08:34:29;-2.60;79.40
20057;DHT22;10189;49.546;7.906;2023-01-29T08:36:55;-2.50;79.10
20057;DHT22;10189;49.546;7.906;2023-01-29T08:39:24;-2.40;77.90
20057;DHT22;10189;49.546;7.906;2023-01-29T08:41:50;-2.30;78.00
20057;DHT22;10189;49.546;7.906;2023-01-29T08:44:16;-2.30;78.00
20057;DHT22;10189;49.546;7.906;2023-01-29T08:46:42;-2.40;78.30
20057;DHT22;10189;49.546;7.906;2023-01-29T08:49:08;-2.30;77.60
20057;DHT22;10189;49.546;7.906;2023-01-29T08:51:34;-2.40;78.00
20057;DHT22;10189;49.546;7.906;2023-01-29T08:54:00;-2.50;78.60
20057;DHT22;10189;49.546;7.906;2023-01-29T08:56:26;-2.60;78.30
20057;DHT22;10189;49.546;7.906;2023-01-29T08:58:52;-2.70;78.70
20057;DHT22;10189;49.546;7.906;2023-01-29T09:01:17;-2.70;79.40
20057;DHT22;10189;49.546;7.906;2023-01-29T09:03:43;-2.80;80.00
20057;DHT22;10189;49.546;7.906;2023-01-29T09:06:11;-2.80;80.80
20057;DHT22;10189;49.546;7.906;2023-01-29T09:08:39;-2.80;81.10
20057;DHT22;10189;49.546;7.906;2023-01-29T09:11:05;-2.60;81.00
20057;DHT22;10189;49.546;7.906;2023-01-29T09:13:32;-2.30;78.90
20057;DHT22;10189;49.546;7.906;2023-01-29T09:15:59;-2.10;77.70
20057;DHT22;10189;49.546;7.906;2023-01-29T09:18:26;-1.80;77.80
20057;DHT22;10189;49.546;7.906;2023-01-29T09:20:53;-1.60;76.50
20057;DHT22;10189;49.546;7.906;2023-01-29T09:23:19;-1.50;74.50
20057;DHT22;10189;49.546;7.906;2023-01-29T09:25:45;-1.30;74.40
20057;DHT22;10189;49.546;7.906;2023-01-29T09:28:11;-1.10;75.10
20057;DHT22;10189;49.546;7.906;2023-01-29T09:30:37;-1.00;74.10
20057;DHT22;10189;49.546;7.906;2023-01-29T09:33:06;-0.90;73.90
20057;DHT22;10189;49.546;7.906;2023-01-29T09:35:33;-0.90;73.60
20057;DHT22;10189;49.546;7.906;2023-01-29T09:37:59;-0.90;72.00
20057;DHT22;10189;49.546;7.906;2023-01-29T09:43:09;-1.00;72.00
20057;DHT22;10189;49.546;7.906;2023-01-29T09:46:05;-0.80;71.60
20057;DHT22;10189;49.546;7.906;2023-01-29T09:48:33;-0.60;70.10
20057;DHT22;10189;49.546;7.906;2023-01-29T09:51:04;-0.50;70.10
20057;DHT22;10189;49.546;7.906;2023-01-29T09:53:46;-0.60;70.80
20057;DHT22;10189;49.546;7.906;2023-01-29T09:56:23;-0.70;70.10
20057;DHT22;10189;49.546;7.906;2023-01-29T09:58:56;-0.70;70.30
20057;DHT22;10189;49.546;7.906;2023-01-29T10:01:30;-1.10;70.10
20057;DHT22;10189;49.546;7.906;2023-01-29T10:09:58;-1.20;71.30
20057;DHT22;10189;49.546;7.906;2023-01-29T10:18:00;-1.10;70.50
20057;DHT22;10189;49.546;7.906;2023-01-29T10:23:37;-1.30;71.20
20057;DHT22;10189;49.546;7.906;2023-01-29T10:26:20;-1.20;71.80
20057;DHT22;10189;49.546;7.906;2023-01-29T10:28:49;-1.10;71.30
20057;DHT22;10189;49.546;7.906;2023-01-29T10:31:38;-1.00;71.20
20057;DHT22;10189;49.546;7.906;2023-01-29T10:34:16;-0.90;71.50
20057;DHT22;10189;49.546;7.906;2023-01-29T10:36:49;-1.00;71.20
20057;DHT22;10189;49.546;7.906;2023-01-29T10:39:15;-1.10;71.80
20057;DHT22;10189;49.546;7.906;2023-01-29T10:53:26;-1.60;75.60
20057;DHT22;10189;49.546;7.906;2023-01-29T10:56:27;-1.50;74.40
20057;DHT22;10189;49.546;7.906;2023-01-29T10:59:34;-1.70;74.30
20057;DHT22;10189;49.546;7.906;2023-01-29T11:02:18;-1.80;74.90
20057;DHT22;10189;49.546;7.906;2023-01-29T11:04:46;-1.70;75.90
20057;DHT22;10189;49.546;7.906;2023-01-29T11:07:13;-1.70;75.80
20057;DHT22;10189;49.546;7.906;2023-01-29T11:09:53;-1.70;76.20
20057;DHT22;10189;49.546;7.906;2023-01-29T11:12:33;-1.60;75.90
20057;DHT22;10189;49.546;7.906;2023-01-29T11:15:18;-1.60;75.00
20057;DHT22;10189;49.546;7.906;2023-01-29T11:18:13;-1.50;75.90
20057;DHT22;10189;49.546;7.906;2023-01-29T11:20:41;-1.40;75.30
20057;DHT22;10189;49.546;7.906;2023-01-29T11:23:28;-1.30;75.30
20057;DHT22;10189;49.546;7.906;2023-01-29T11:25:56;-1.20;73.80
20057;DHT22;10189;49.546;7.906;2023-01-29T11:28:41;-1.30;73.50
20057;DHT22;10189;49.546;7.906;2023-01-29T11:31:34;-1.20;74.30
20057;DHT22;10189;49.546;7.906;2023-01-29T11:34:22;-1.10;75.20
20057;DHT22;10189;49.546;7.906;2023-01-29T11:36:59;-0.90;75.40
20057;DHT22;10189;49.546;7.906;2023-01-29T11:39:29;-1.00;74.50
20057;DHT22;10189;49.546;7.906;2023-01-29T11:41:58;-1.00;75.00
20057;DHT22;10189;49.546;7.906;2023-01-29T11:44:31;-0.80;75.40
20057;DHT22;10189;49.546;7.906;2023-01-29T11:47:21;-0.80;73.10
20057;DHT22;10189;49.546;7.906;2023-01-29T11:49:53;-0.80;74.60
20057;DHT22;10189;49.546;7.906;2023-01-29T11:52:23;-0.70;73.80
20057;DHT22;10189;49.546;7.906;2023-01-29T11:55:02;-0.70;72.90
20057;DHT22;10189;49.546;7.906;2023-01-29T11:57:45;-0.70;73.50
20057;DHT22;10189;49.546;7.906;2023-01-29T12:00:31;-0.70;73.60
20057;DHT22;10189;49.546;7.906;2023-01-29T12:03:14;-0.70;72.70
20057;DHT22;10189;49.546;7.906;2023-01-29T12:05:55;-0.70;73.10
20057;DHT22;10189;49.546;7.906;2023-01-29T12:08:38;-0.80;73.10
20057;DHT22;10189;49.546;7.906;2023-01-29T12:11:35;-0.70;73.30
20057;DHT22;10189;49.546;7.906;2023-01-29T12:14:14;-0.60;73.20
20057;DHT22;10189;49.546;7.906;2023-01-29T12:17:19;-0.60;74.00
20057;DHT22;10189;49.546;7.906;2023-01-29T12:20:00;-0.40;73.70
20057;DHT22;10189;49.546;7.906;2023-01-29T12:22:42;-0.20;73.00
20057;DHT22;10189;49.546;7.906;2023-01-29T12:25:37;0.00;71.80
20057;DHT22;10189;49.546;7.906;2023-01-29T12:28:38;0.20;72.30
20057;DHT22;10189;49.546;7.906;2023-01-29T12:31:34;0.40;71.50
20057;DHT22;10189;49.546;7.906;2023-01-29T12:37:44;0.10;70.50
20057;DHT22;10189;49.546;7.906;2023-01-29T12:40:20;-0.30;71.20
20057;DHT22;10189;49.546;7.906;2023-01-29T12:42:55;-0.30;72.30
20057;DHT22;10189;49.546;7.906;2023-01-29T12:45:26;-0.20;72.90
20057;DHT22;10189;49.546;7.906;2023-01-29T12:48:01;-0.20;71.20
20057;DHT22;10189;49.546;7.906;2023-01-29T12:50:34;-0.20;71.50
20057;DHT22;10189;49.546;7.906;2023-01-29T12:53:06;-0.10;72.30
20057;DHT22;10189;49.546;7.906;2023-01-29T12:56:03;0.00;72.40
20057;DHT22;10189;49.546;7.906;2023-01-29T12:58:45;0.20;71.80
20057;DHT22;10189;49.546;7.906;2023-01-29T13:03:52;0.40;69.40
20057;DHT22;10189;49.546;7.906;2023-01-29T13:06:29;0.40;69.00
20057;DHT22;10189;49.546;7.906;2023-01-29T13:09:03;0.30;69.50
20057;DHT22;10189;49.546;7.906;2023-01-29T13:14:46;0.60;70.10
20057;DHT22;10189;49.546;7.906;2023-01-29T13:17:22;0.70;69.70
20057;DHT22;10189;49.546;7.906;2023-01-29T13:19:56;0.70;69.30
20057;DHT22;10189;49.546;7.906;2023-01-29T13:22:30;0.60;68.70
20057;DHT22;10189;49.546;7.906;2023-01-29T13:25:00;0.20;68.90
20057;DHT22;10189;49.546;7.906;2023-01-29T13:27:30;-0.10;69.40
20057;DHT22;10189;49.546;7.906;2023-01-29T13:29:58;-0.20;71.10
20057;DHT22;10189;49.546;7.906;2023-01-29T13:32:28;-0.30;72.10
20057;DHT22;10189;49.546;7.906;2023-01-29T13:35:04;-0.30;72.20
20057;DHT22;10189;49.546;7.906;2023-01-29T13:37:41;-0.30;72.90
20057;DHT22;10189;49.546;7.906;2023-01-29T13:40:26;-0.20;72.80
20057;DHT22;10189;49.546;7.906;2023-01-29T13:42:54;-0.20;72.80
20057;DHT22;10189;49.546;7.906;2023-01-29T13:45:22;-0.10;72.60
20057;DHT22;10189;49.546;7.906;2023-01-29T13:48:22;-0.10;71.60
20057;DHT22;10189;49.546;7.906;2023-01-29T13:50:56;-0.20;71.70
20057;DHT22;10189;49.546;7.906;2023-01-29T13:53:35;-0.20;72.70
20057;DHT22;10189;49.546;7.906;2023-01-29T13:56:27;-0.20;72.90
20057;DHT22;10189;49.546;7.906;2023-01-29T13:58:57;-0.10;72.70
20057;DHT22;10189;49.546;7.906;2023-01-29T14:04:27;-0.30;72.40
20057;DHT22;10189;49.546;7.906;2023-01-29T14:07:00;-0.30;72.90
20057;DHT22;10189;49.546;7.906;2023-01-29T14:12:02;-0.40;74.30
20057;DHT22;10189;49.546;7.906;2023-01-29T14:17:17;-0.40;73.90
20057;DHT22;10189;49.546;7.906;2023-01-29T14:19:53;-0.30;72.80
20057;DHT22;10189;49.546;7.906;2023-01-29T14:22:37;-0.30;72.80
20057;DHT22;10189;49.546;7.906;2023-01-29T14:25:04;-0.40;73.80
20057;DHT22;10189;49.546;7.906;2023-01-29T14:27:31;-0.40;73.70
20057;DHT22;10189;49.546;7.906;2023-01-29T14:30:00;-0.40;73.70
20057;DHT22;10189;49.546;7.906;2023-01-29T14:32:31;-0.50;73.10
20057;DHT22;10189;49.546;7.906;2023-01-29T14:35:24;-0.50;73.90
20057;DHT22;10189;49.546;7.906;2023-01-29T14:38:04;-0.50;74.40
20057;DHT22;10189;49.546;7.906;2023-01-29T14:40:32;-0.50;75.30
20057;DHT22;10189;49.546;7.906;2023-01-29T14:43:15;-0.50;74.10
20057;DHT22;10189;49.546;7.906;2023-01-29T14:45:47;-0.60;73.70
20057;DHT22;10189;49.546;7.906;2023-01-29T14:48:44;-0.70;74.60
20057;DHT22;10189;49.546;7.906;2023-01-29T14:51:17;-0.70;74.80
20057;DHT22;10189;49.546;7.906;2023-01-29T14:53:58;-0.80;74.30
20057;DHT22;10189;49.546;7.906;2023-01-29T14:56:44;-0.90;75.00
20057;DHT22;10189;49.546;7.906;2023-01-29T14:59:36;-0.90;75.30
20057;DHT22;10189;49.546;7.906;2023-01-29T15:02:38;-0.90;75.20
20057;DHT22;10189;49.546;7.906;2023-01-29T15:05:16;-1.00;75.70
20057;DHT22;10189;49.546;7.906;2023-01-29T15:07:57;-1.00;75.40
20057;DHT22;10189;49.546;7.906;2023-01-29T15:10:42;-1.10;76.10
20057;DHT22;10189;49.546;7.906;2023-01-29T15:13:31;-1.10;75.70
20057;DHT22;10189;49.546;7.906;2023-01-29T15:16:24;-1.20;76.40
20057;DHT22;10189;49.546;7.906;2023-01-29T15:22:05;-1.20;76.90
20057;DHT22;10189;49.546;7.906;2023-01-29T15:24:38;-1.30;77.10
20057;DHT22;10189;49.546;7.906;2023-01-29T15:27:08;-1.30;77.40
20057;DHT22;10189;49.546;7.906;2023-01-29T15:29:38;-1.40;78.50
20057;DHT22;10189;49.546;7.906;2023-01-29T15:32:06;-1.50;78.70
20057;DHT22;10189;49.546;7.906;2023-01-29T15:34:33;-1.50;78.80
20057;DHT22;10189;49.546;7.906;2023-01-29T15:36:58;-1.60;78.90
20057;DHT22;10189;49.546;7.906;2023-01-29T15:39:24;-1.60;79.30
20057;DHT22;10189;49.546;7.906;2023-01-29T15:42:10;-1.70;79.80
20057;DHT22;10189;49.546;7.906;2023-01-29T15:44:43;-1.70;79.70
20057;DHT22;10189;49.546;7.906;2023-01-29T15:47:11;-1.80;80.30
20057;DHT22;10189;49.546;7.906;2023-01-29T15:49:39;-1.70;80.80
20057;DHT22;10189;49.546;7.906;2023-01-29T15:52:16;-1.80;80.80
20057;DHT22;10189;49.546;7.906;2023-01-29T15:54:46;-1.90;81.20
20057;DHT22;10189;49.546;7.906;2023-01-29T15:57:24;-2.00;81.60
20057;DHT22;10189;49.546;7.906;2023-01-29T15:59:54;-2.00;82.00
20057;DHT22;10189;49.546;7.906;2023-01-29T16:05:28;-2.10;82.90
20057;DHT22;10189;49.546;7.906;2023-01-29T16:07:55;-2.10;83.00
20057;DHT22;10189;49.546;7.906;2023-01-29T16:10:25;-2.20;83.20
20057;DHT22;10189;49.546;7.906;2023-01-29T16:12:53;-2.20;83.30
20057;DHT22;10189;49.546;7.906;2023-01-29T16:15:52;-2.30;83.70
20057;DHT22;10189;49.546;7.906;2023-01-29T16:18:27;-2.20;83.70
20057;DHT22;10189;49.546;7.906;2023-01-29T16:21:14;-2.30;83.90
20057;DHT22;10189;49.546;7.906;2023-01-29T16:23:53;-2.30;84.30
20057;DHT22;10189;49.546;7.906;2023-01-29T16:26:24;-2.30;84.40
20057;DHT22;10189;49.546;7.906;2023-01-29T16:28:53;-2.30;84.10
20057;DHT22;10189;49.546;7.906;2023-01-29T16:31:26;-2.20;83.90
20057;DHT22;10189;49.546;7.906;2023-01-29T16:33:54;-2.30;84.30
20057;DHT22;10189;49.546;7.906;2023-01-29T16:36:25;-2.30;84.10
20057;DHT22;10189;49.546;7.906;2023-01-29T16:38:58;-2.30;84.10
20057;DHT22;10189;49.546;7.906;2023-01-29T16:41:29;-2.30;84.00
20057;DHT22;10189;49.546;7.906;2023-01-29T16:44:02;-2.40;84.40
20057;DHT22;10189;49.546;7.906;2023-01-29T16:46:43;-2.50;85.00
20057;DHT22;10189;49.546;7.906;2023-01-29T16:51:58;-2.60;85.50
20057;DHT22;10189;49.546;7.906;2023-01-29T16:54:42;-2.70;85.60
20057;DHT22;10189;49.546;7.906;2023-01-29T16:57:21;-2.80;86.30
20057;DHT22;10189;49.546;7.906;2023-01-29T16:59:53;-2.80;86.40
20057;DHT22;10189;49.546;7.906;2023-01-29T17:02:31;-2.70;86.50
20057;DHT22;10189;49.546;7.906;2023-01-29T17:05:05;-2.70;86.30
20057;DHT22;10189;49.546;7.906;2023-01-29T17:07:35;-2.70;86.10
20057;DHT22;10189;49.546;7.906;2023-01-29T17:10:04;-2.80;86.20
20057;DHT22;10189;49.546;7.906;2023-01-29T17:12:32;-2.90;86.70
20057;DHT22;10189;49.546;7.906;2023-01-29T17:15:00;-2.90;87.00
20057;DHT22;10189;49.546;7.906;2023-01-29T17:17:33;-2.70;86.50
20057;DHT22;10189;49.546;7.906;2023-01-29T17:20:14;-2.80;86.50
20057;DHT22;10189;49.546;7.906;2023-01-29T17:22:41;-2.90;86.70
20057;DHT22;10189;49.546;7.906;2023-01-29T17:25:12;-3.00;87.20
20057;DHT22;10189;49.546;7.906;2023-01-29T17:27:40;-3.00;87.60
20057;DHT22;10189;49.546;7.906;2023-01-29T17:30:15;-3.00;87.80
20057;DHT22;10189;49.546;7.906;2023-01-29T17:32:42;-3.00;87.80
20057;DHT22;10189;49.546;7.906;2023-01-29T17:35:11;-3.00;88.20
20057;DHT22;10189;49.546;7.906;2023-01-29T17:37:40;-3.00;88.10
20057;DHT22;10189;49.546;7.906;2023-01-29T17:40:35;-3.10;88.20
20057;DHT22;10189;49.546;7.906;2023-01-29T17:43:03;-3.20;88.50
20057;DHT22;10189;49.546;7.906;2023-01-29T17:45:29;-3.30;89.10
20057;DHT22;10189;49.546;7.906;2023-01-29T17:47:55;-3.40;89.70
20057;DHT22;10189;49.546;7.906;2023-01-29T17:50:22;-3.50;90.00
20057;DHT22;10189;49.546;7.906;2023-01-29T17:52:51;-3.50;90.70
20057;DHT22;10189;49.546;7.906;2023-01-29T17:55:18;-3.50;90.50
20057;DHT22;10189;49.546;7.906;2023-01-29T17:57:45;-3.50;90.60
20057;DHT22;10189;49.546;7.906;2023-01-29T18:00:21;-3.60;90.90